Akron, IA

5:52 AM CDT on July 29, 2014 (GMT -0500)
Rural Elk Point (KSDELKPO7) Elev 1119 ft | 42.63 °N, 96.64 °W | Change Station

Current weather conditions updated 2 minutes ago

Clear
Clear
52.7 °F
Feels Like 52.7 °F
N
1.6
Wind Variable Wind from NE
Gusts 3.1 mph

Today is forecast to be nearly the same temperature as yesterday.

Today
High -- | Low -- °F
--% Chance of Precip.
Yesterday
High -- | Low -- °F
Precip. -- in
6:14 AM 8:50 PM
Waxing Crescent, 6% visible
Pressure 30.21 in
Visibility 8.0 miles
Clouds Clear
Dew Point 51 °F
Humidity 94%
Rainfall 0.00 in
Snow Depth Not available.
UV 0 out of 12
Pollen 5.60 out of 12
Air Quality Not available.
Flu Activity Not available.
METAR KLRJ 291035Z AUTO 00000KT 8SM CLR 10/10 A3021 RMK AO2

More Conditions Fewer Conditions

Pressure 30.21 in
Visibility 8.0 miles
Clouds Clear
Dew Point 51 °F
Humidity 94%
Rainfall 0.00 in
Snow Depth Not available.
UV 0 out of 12
Pollen 5.60 out of 12
Air Quality Not available.
Flu Activity Not available.
METAR KLRJ 291035Z AUTO 00000KT 8SM CLR 10/10 A3021 RMK AO2

More Conditions Fewer Conditions

10-Day Weather Forecast

Almanac

Astronomy

Jul. 29, 2014 Rise Set
Actual Time 6:14 AM CDT 8:50 PM CDT
Civil Twilight 5:41 AM CDT 9:22 PM CDT
Nautical Twilight 5:01 AM CDT 10:02 PM CDT
Astronomical Twilight 4:15 AM CDT 10:48 PM CDT
Moon 8:57 AM CDT 9:57 PM CDT
Length of Visible Light 15h 40m
Length of Day
14h 35m
Tomorrow will be 2m 8s shorter.
Waxing Crescent, 6% of the Moon is Illuminated
Today
Waxing Crescent
Aug 3
First Quarter
Aug 10
Full
Aug 17
Last Quarter
Aug 25
New

Today's Extremes

State Highs State Lows

Community

WunderPhotos

Upload Photos

1,738,683 photos uploaded!

Nearby

Snow Depth

Station Depth Elevation
No new snow has been reported.

Earthquake Activity

City Distance Mag. Time & Date
No recent earthquake activity has been reported nearby.
Minimum magnitude displayed is 2.5.

Coastal Water Temperatures

Place Temperature
No Stations Reporting

Nearby Weather Stations

Station Location Temp. Windchill Dew Point Humidity Wind Precip. Elev Updated Type
Rural Elk Point, Elk Point, SD 52.7 °F - 51 °F 94% NE  at  1.6 mph 0.00 in / hr 1119 ft 5:49 AM CDT Normal
NW Le Mars, Le Mars, IA 49.7 °F 50 °F 122 °F - North  at  0.0 mph 0.00 in / hr 1280 ft 5:50 AM CDT Normal
Down Town, LeMars, IA 51.6 °F - 48 °F 87% North  at  0.0 mph 0.00 in / hr 1220 ft 5:44 AM CDT Normal
Northside Jones House, Sioux City, IA 50.0 °F - 38 °F 63% NNW  at  0.0 mph 0.00 in / hr 1253 ft 5:44 AM CDT Normal
McCook Lake SD, McCook Lake, SD 55.6 °F - 55 °F 97% NW  at  2.0 mph 0.00 in / hr 1114 ft 5:52 AM CDT Rapid Fire
Sioux Center, Sioux Center, IA 53.7 °F - 51 °F 91% North  at  0.0 mph 0.00 in / hr 1411 ft 5:40 AM CDT Normal

Show More Stations Show Fewer Stations